sensor_id;sensor_type;location;lat;lon;timestamp;P1;durP1;ratioP1;P2;durP2;ratioP2
39502;SDS011;26970;49.900;10.774;2023-04-29T00:00:26;10.55;;;7.93;;
39502;SDS011;26970;49.900;10.774;2023-04-29T00:02:51;10.77;;;8.45;;
39502;SDS011;26970;49.900;10.774;2023-04-29T00:05:17;11.93;;;8.07;;
39502;SDS011;26970;49.900;10.774;2023-04-29T00:07:42;10.93;;;7.72;;
39502;SDS011;26970;49.900;10.774;2023-04-29T00:10:08;9.95;;;7.75;;
39502;SDS011;26970;49.900;10.774;2023-04-29T00:12:35;11.00;;;7.95;;
39502;SDS011;26970;49.900;10.774;2023-04-29T00:15:01;9.13;;;6.55;;
39502;SDS011;26970;49.900;10.774;2023-04-29T00:17:28;8.85;;;6.60;;
39502;SDS011;26970;49.900;10.774;2023-04-29T00:19:54;9.90;;;6.50;;
39502;SDS011;26970;49.900;10.774;2023-04-29T00:22:19;9.32;;;7.10;;
39502;SDS011;26970;49.900;10.774;2023-04-29T00:24:46;9.73;;;6.70;;
39502;SDS011;26970;49.900;10.774;2023-04-29T00:27:12;10.68;;;7.72;;
39502;SDS011;26970;49.900;10.774;2023-04-29T00:29:37;10.80;;;7.10;;
39502;SDS011;26970;49.900;10.774;2023-04-29T00:32:03;10.73;;;7.45;;
39502;SDS011;26970;49.900;10.774;2023-04-29T00:34:29;9.70;;;6.43;;
39502;SDS011;26970;49.900;10.774;2023-04-29T00:36:54;10.55;;;7.00;;
39502;SDS011;26970;49.900;10.774;2023-04-29T00:39:20;8.25;;;6.07;;
39502;SDS011;26970;49.900;10.774;2023-04-29T00:41:46;9.15;;;6.78;;
39502;SDS011;26970;49.900;10.774;2023-04-29T00:44:12;10.23;;;6.82;;
39502;SDS011;26970;49.900;10.774;2023-04-29T00:46:37;35.50;;;6.97;;
39502;SDS011;26970;49.900;10.774;2023-04-29T00:49:03;205.02;;;10.60;;
39502;SDS011;26970;49.900;10.774;2023-04-29T00:51:29;214.43;;;11.60;;
39502;SDS011;26970;49.900;10.774;2023-04-29T00:53:55;152.43;;;8.15;;
39502;SDS011;26970;49.900;10.774;2023-04-29T00:56:21;51.35;;;6.50;;
39502;SDS011;26970;49.900;10.774;2023-04-29T00:58:48;41.42;;;6.93;;
39502;SDS011;26970;49.900;10.774;2023-04-29T01:01:15;39.13;;;6.95;;
39502;SDS011;26970;49.900;10.774;2023-04-29T01:03:41;26.10;;;6.70;;
39502;SDS011;26970;49.900;10.774;2023-04-29T01:11:41;14.90;;;7.47;;
39502;SDS011;26970;49.900;10.774;2023-04-29T01:14:16;10.88;;;8.20;;
39502;SDS011;26970;49.900;10.774;2023-04-29T01:16:50;12.55;;;9.10;;
39502;SDS011;26970;49.900;10.774;2023-04-29T01:19:59;12.10;;;9.27;;
39502;SDS011;26970;49.900;10.774;2023-04-29T01:22:10;11.85;;;9.45;;
39502;SDS011;26970;49.900;10.774;2023-04-29T01:24:38;13.75;;;9.20;;
39502;SDS011;26970;49.900;10.774;2023-04-29T01:32:27;13.77;;;9.82;;
39502;SDS011;26970;49.900;10.774;2023-04-29T01:35:14;14.05;;;9.13;;
39502;SDS011;26970;49.900;10.774;2023-04-29T01:40:58;12.85;;;9.73;;
39502;SDS011;26970;49.900;10.774;2023-04-29T01:43:31;12.57;;;8.52;;
39502;SDS011;26970;49.900;10.774;2023-04-29T01:45:58;37.83;;;7.45;;
39502;SDS011;26970;49.900;10.774;2023-04-29T01:48:25;13.73;;;7.40;;
39502;SDS011;26970;49.900;10.774;2023-04-29T01:50:50;19.83;;;7.57;;
39502;SDS011;26970;49.900;10.774;2023-04-29T01:53:16;27.10;;;8.10;;
39502;SDS011;26970;49.900;10.774;2023-04-29T01:55:42;20.92;;;7.88;;
39502;SDS011;26970;49.900;10.774;2023-04-29T01:58:08;20.95;;;8.43;;
39502;SDS011;26970;49.900;10.774;2023-04-29T02:00:37;12.93;;;6.70;;
39502;SDS011;26970;49.900;10.774;2023-04-29T02:03:02;29.23;;;8.02;;
39502;SDS011;26970;49.900;10.774;2023-04-29T02:05:28;32.92;;;8.00;;
39502;SDS011;26970;49.900;10.774;2023-04-29T02:07:57;66.65;;;8.27;;
39502;SDS011;26970;49.900;10.774;2023-04-29T02:10:23;54.45;;;6.70;;
39502;SDS011;26970;49.900;10.774;2023-04-29T02:12:49;29.83;;;6.80;;
39502;SDS011;26970;49.900;10.774;2023-04-29T02:15:14;12.25;;;6.70;;
39502;SDS011;26970;49.900;10.774;2023-04-29T02:17:41;9.35;;;6.93;;
39502;SDS011;26970;49.900;10.774;2023-04-29T02:20:07;17.40;;;8.38;;
39502;SDS011;26970;49.900;10.774;2023-04-29T02:22:34;12.80;;;9.30;;
39502;SDS011;26970;49.900;10.774;2023-04-29T02:24:59;14.85;;;9.68;;
39502;SDS011;26970;49.900;10.774;2023-04-29T02:27:25;12.73;;;8.80;;
39502;SDS011;26970;49.900;10.774;2023-04-29T02:29:51;15.20;;;10.70;;
39502;SDS011;26970;49.900;10.774;2023-04-29T02:32:16;15.70;;;10.55;;
39502;SDS011;26970;49.900;10.774;2023-04-29T02:34:44;18.95;;;11.38;;
39502;SDS011;26970;49.900;10.774;2023-04-29T02:37:10;15.68;;;11.65;;
39502;SDS011;26970;49.900;10.774;2023-04-29T02:39:36;15.45;;;10.65;;
39502;SDS011;26970;49.900;10.774;2023-04-29T02:42:02;15.68;;;9.88;;
39502;SDS011;26970;49.900;10.774;2023-04-29T02:44:28;17.67;;;11.23;;
39502;SDS011;26970;49.900;10.774;2023-04-29T02:46:55;14.98;;;10.65;;
39502;SDS011;26970;49.900;10.774;2023-04-29T02:49:21;27.17;;;9.98;;
39502;SDS011;26970;49.900;10.774;2023-04-29T02:51:47;105.07;;;11.48;;
39502;SDS011;26970;49.900;10.774;2023-04-29T02:54:14;151.45;;;12.02;;
39502;SDS011;26970;49.900;10.774;2023-04-29T02:56:40;147.18;;;9.75;;
39502;SDS011;26970;49.900;10.774;2023-04-29T02:59:06;50.33;;;8.45;;
39502;SDS011;26970;49.900;10.774;2023-04-29T03:01:32;23.48;;;7.65;;
39502;SDS011;26970;49.900;10.774;2023-04-29T03:03:57;12.00;;;7.15;;
39502;SDS011;26970;49.900;10.774;2023-04-29T03:06:23;33.53;;;8.57;;
39502;SDS011;26970;49.900;10.774;2023-04-29T03:08:49;30.85;;;10.10;;
39502;SDS011;26970;49.900;10.774;2023-04-29T03:11:16;34.28;;;9.68;;
39502;SDS011;26970;49.900;10.774;2023-04-29T03:13:42;25.92;;;9.60;;
39502;SDS011;26970;49.900;10.774;2023-04-29T03:16:07;19.42;;;8.95;;
39502;SDS011;26970;49.900;10.774;2023-04-29T03:18:33;11.43;;;8.25;;
39502;SDS011;26970;49.900;10.774;2023-04-29T03:20:58;11.52;;;8.73;;
39502;SDS011;26970;49.900;10.774;2023-04-29T03:23:24;12.30;;;8.88;;
39502;SDS011;26970;49.900;10.774;2023-04-29T03:25:50;12.35;;;8.90;;
39502;SDS011;26970;49.900;10.774;2023-04-29T03:28:17;14.93;;;8.52;;
39502;SDS011;26970;49.900;10.774;2023-04-29T03:30:42;10.20;;;8.00;;
39502;SDS011;26970;49.900;10.774;2023-04-29T03:33:08;12.55;;;9.27;;
39502;SDS011;26970;49.900;10.774;2023-04-29T03:35:33;13.07;;;9.40;;
39502;SDS011;26970;49.900;10.774;2023-04-29T03:37:59;14.30;;;10.20;;
39502;SDS011;26970;49.900;10.774;2023-04-29T03:40:24;14.93;;;10.32;;
39502;SDS011;26970;49.900;10.774;2023-04-29T03:42:50;13.77;;;10.00;;
39502;SDS011;26970;49.900;10.774;2023-04-29T03:45:16;14.23;;;9.98;;
39502;SDS011;26970;49.900;10.774;2023-04-29T03:47:41;15.80;;;11.02;;
39502;SDS011;26970;49.900;10.774;2023-04-29T03:50:07;14.60;;;10.27;;
39502;SDS011;26970;49.900;10.774;2023-04-29T03:52:33;15.23;;;10.77;;
39502;SDS011;26970;49.900;10.774;2023-04-29T03:55:02;17.75;;;10.93;;
39502;SDS011;26970;49.900;10.774;2023-04-29T03:57:27;15.02;;;10.25;;
39502;SDS011;26970;49.900;10.774;2023-04-29T03:59:53;18.45;;;11.82;;
39502;SDS011;26970;49.900;10.774;2023-04-29T04:02:18;15.18;;;9.85;;
39502;SDS011;26970;49.900;10.774;2023-04-29T04:04:44;15.68;;;9.80;;
39502;SDS011;26970;49.900;10.774;2023-04-29T04:07:10;13.57;;;9.50;;
39502;SDS011;26970;49.900;10.774;2023-04-29T04:09:36;14.95;;;10.02;;
39502;SDS011;26970;49.900;10.774;2023-04-29T04:12:02;14.93;;;9.35;;
39502;SDS011;26970;49.900;10.774;2023-04-29T04:14:28;13.63;;;9.38;;
39502;SDS011;26970;49.900;10.774;2023-04-29T04:16:54;13.65;;;9.23;;
39502;SDS011;26970;49.900;10.774;2023-04-29T04:19:20;14.27;;;9.30;;
39502;SDS011;26970;49.900;10.774;2023-04-29T04:21:45;15.35;;;9.32;;
39502;SDS011;26970;49.900;10.774;2023-04-29T04:24:11;15.40;;;10.13;;
39502;SDS011;26970;49.900;10.774;2023-04-29T04:26:36;14.63;;;10.02;;
39502;SDS011;26970;49.900;10.774;2023-04-29T04:29:02;14.90;;;9.43;;
39502;SDS011;26970;49.900;10.774;2023-04-29T04:31:28;14.10;;;9.82;;
39502;SDS011;26970;49.900;10.774;2023-04-29T04:33:55;13.15;;;9.70;;
39502;SDS011;26970;49.900;10.774;2023-04-29T04:36:21;13.63;;;10.00;;
39502;SDS011;26970;49.900;10.774;2023-04-29T04:38:46;14.00;;;9.98;;
39502;SDS011;26970;49.900;10.774;2023-04-29T04:41:12;13.73;;;9.85;;
39502;SDS011;26970;49.900;10.774;2023-04-29T04:43:37;14.77;;;10.40;;
39502;SDS011;26970;49.900;10.774;2023-04-29T04:46:11;16.05;;;10.50;;
39502;SDS011;26970;49.900;10.774;2023-04-29T04:48:38;15.07;;;10.65;;
39502;SDS011;26970;49.900;10.774;2023-04-29T04:51:10;15.30;;;10.73;;
39502;SDS011;26970;49.900;10.774;2023-04-29T04:53:37;15.85;;;11.15;;
39502;SDS011;26970;49.900;10.774;2023-04-29T04:56:03;14.93;;;11.60;;
39502;SDS011;26970;49.900;10.774;2023-04-29T04:58:30;15.45;;;11.35;;
39502;SDS011;26970;49.900;10.774;2023-04-29T05:00:56;19.88;;;11.63;;
39502;SDS011;26970;49.900;10.774;2023-04-29T05:03:22;15.57;;;10.73;;
39502;SDS011;26970;49.900;10.774;2023-04-29T05:05:58;18.35;;;11.65;;
39502;SDS011;26970;49.900;10.774;2023-04-29T05:08:24;17.60;;;11.23;;
39502;SDS011;26970;49.900;10.774;2023-04-29T05:10:50;20.10;;;11.85;;
39502;SDS011;26970;49.900;10.774;2023-04-29T05:13:16;20.08;;;10.85;;
39502;SDS011;26970;49.900;10.774;2023-04-29T05:15:42;18.15;;;11.65;;
39502;SDS011;26970;49.900;10.774;2023-04-29T05:18:08;16.98;;;11.65;;
39502;SDS011;26970;49.900;10.774;2023-04-29T05:20:34;16.42;;;11.27;;
39502;SDS011;26970;49.900;10.774;2023-04-29T05:23:00;16.75;;;11.25;;
39502;SDS011;26970;49.900;10.774;2023-04-29T05:25:26;13.43;;;10.30;;
39502;SDS011;26970;49.900;10.774;2023-04-29T05:27:51;14.90;;;11.10;;
39502;SDS011;26970;49.900;10.774;2023-04-29T05:30:17;14.57;;;10.50;;
39502;SDS011;26970;49.900;10.774;2023-04-29T05:32:43;14.90;;;11.00;;
39502;SDS011;26970;49.900;10.774;2023-04-29T05:35:10;16.45;;;10.88;;
39502;SDS011;26970;49.900;10.774;2023-04-29T05:37:36;14.88;;;11.02;;
39502;SDS011;26970;49.900;10.774;2023-04-29T05:40:02;14.18;;;10.65;;
39502;SDS011;26970;49.900;10.774;2023-04-29T05:42:28;16.52;;;10.35;;
39502;SDS011;26970;49.900;10.774;2023-04-29T05:44:53;14.13;;;10.20;;
39502;SDS011;26970;49.900;10.774;2023-04-29T05:47:19;15.65;;;10.40;;
39502;SDS011;26970;49.900;10.774;2023-04-29T05:49:45;16.25;;;11.25;;
39502;SDS011;26970;49.900;10.774;2023-04-29T05:52:11;15.75;;;10.90;;
39502;SDS011;26970;49.900;10.774;2023-04-29T05:54:36;16.98;;;11.52;;
39502;SDS011;26970;49.900;10.774;2023-04-29T05:57:02;16.05;;;11.27;;
39502;SDS011;26970;49.900;10.774;2023-04-29T05:59:28;16.73;;;11.27;;
39502;SDS011;26970;49.900;10.774;2023-04-29T06:01:55;18.45;;;11.07;;
39502;SDS011;26970;49.900;10.774;2023-04-29T06:04:21;16.67;;;11.00;;
39502;SDS011;26970;49.900;10.774;2023-04-29T06:06:46;15.95;;;10.80;;
39502;SDS011;26970;49.900;10.774;2023-04-29T06:09:12;16.45;;;11.70;;
39502;SDS011;26970;49.900;10.774;2023-04-29T06:11:42;19.08;;;11.00;;
39502;SDS011;26970;49.900;10.774;2023-04-29T06:14:08;17.58;;;11.20;;
39502;SDS011;26970;49.900;10.774;2023-04-29T06:16:34;15.65;;;10.95;;
39502;SDS011;26970;49.900;10.774;2023-04-29T06:19:00;16.25;;;10.25;;
39502;SDS011;26970;49.900;10.774;2023-04-29T06:21:26;15.43;;;11.13;;
39502;SDS011;26970;49.900;10.774;2023-04-29T06:23:55;18.40;;;11.65;;
39502;SDS011;26970;49.900;10.774;2023-04-29T06:26:21;16.40;;;11.23;;
39502;SDS011;26970;49.900;10.774;2023-04-29T06:28:47;14.50;;;11.20;;
39502;SDS011;26970;49.900;10.774;2023-04-29T06:31:12;17.00;;;11.40;;
39502;SDS011;26970;49.900;10.774;2023-04-29T06:33:38;18.88;;;12.55;;
39502;SDS011;26970;49.900;10.774;2023-04-29T06:36:04;15.27;;;10.80;;
39502;SDS011;26970;49.900;10.774;2023-04-29T06:38:29;21.05;;;12.73;;
39502;SDS011;26970;49.900;10.774;2023-04-29T06:40:55;14.63;;;10.85;;
39502;SDS011;26970;49.900;10.774;2023-04-29T06:43:31;18.27;;;11.80;;
39502;SDS011;26970;49.900;10.774;2023-04-29T06:45:57;15.45;;;11.02;;
39502;SDS011;26970;49.900;10.774;2023-04-29T06:48:22;15.63;;;11.02;;
39502;SDS011;26970;49.900;10.774;2023-04-29T06:50:52;14.63;;;10.73;;
39502;SDS011;26970;49.900;10.774;2023-04-29T06:53:18;16.23;;;11.20;;
39502;SDS011;26970;49.900;10.774;2023-04-29T06:55:44;15.35;;;10.27;;
39502;SDS011;26970;49.900;10.774;2023-04-29T06:58:13;14.43;;;10.32;;
39502;SDS011;26970;49.900;10.774;2023-04-29T07:00:42;17.35;;;10.00;;
39502;SDS011;26970;49.900;10.774;2023-04-29T07:03:10;14.57;;;9.90;;
39502;SDS011;26970;49.900;10.774;2023-04-29T07:05:36;13.55;;;10.23;;
39502;SDS011;26970;49.900;10.774;2023-04-29T07:08:04;12.93;;;10.10;;
39502;SDS011;26970;49.900;10.774;2023-04-29T07:10:30;14.43;;;10.60;;
39502;SDS011;26970;49.900;10.774;2023-04-29T07:12:56;14.18;;;10.68;;
39502;SDS011;26970;49.900;10.774;2023-04-29T07:15:21;13.40;;;10.30;;
39502;SDS011;26970;49.900;10.774;2023-04-29T07:17:47;15.27;;;9.30;;
39502;SDS011;26970;49.900;10.774;2023-04-29T07:20:13;15.38;;;10.55;;
39502;SDS011;26970;49.900;10.774;2023-04-29T07:22:38;12.93;;;9.95;;
39502;SDS011;26970;49.900;10.774;2023-04-29T07:25:04;13.50;;;9.25;;
39502;SDS011;26970;49.900;10.774;2023-04-29T07:27:31;10.90;;;8.55;;
39502;SDS011;26970;49.900;10.774;2023-04-29T07:29:58;13.02;;;9.68;;
39502;SDS011;26970;49.900;10.774;2023-04-29T07:32:25;12.10;;;8.32;;
39502;SDS011;26970;49.900;10.774;2023-04-29T07:34:51;12.95;;;8.68;;
39502;SDS011;26970;49.900;10.774;2023-04-29T07:37:17;14.18;;;9.10;;
39502;SDS011;26970;49.900;10.774;2023-04-29T07:39:43;12.85;;;8.48;;
39502;SDS011;26970;49.900;10.774;2023-04-29T07:42:09;14.13;;;8.95;;
39502;SDS011;26970;49.900;10.774;2023-04-29T07:44:35;12.07;;;9.45;;
39502;SDS011;26970;49.900;10.774;2023-04-29T07:47:00;11.60;;;8.20;;
39502;SDS011;26970;49.900;10.774;2023-04-29T07:49:26;12.85;;;10.15;;
39502;SDS011;26970;49.900;10.774;2023-04-29T07:51:52;14.23;;;8.65;;
39502;SDS011;26970;49.900;10.774;2023-04-29T07:54:17;14.68;;;9.15;;
39502;SDS011;26970;49.900;10.774;2023-04-29T07:56:46;12.85;;;7.93;;
39502;SDS011;26970;49.900;10.774;2023-04-29T07:59:12;11.65;;;9.07;;
39502;SDS011;26970;49.900;10.774;2023-04-29T08:01:39;12.45;;;9.70;;
39502;SDS011;26970;49.900;10.774;2023-04-29T08:04:06;10.82;;;8.25;;
39502;SDS011;26970;49.900;10.774;2023-04-29T08:06:32;10.80;;;8.30;;
39502;SDS011;26970;49.900;10.774;2023-04-29T08:08:58;9.85;;;7.13;;
39502;SDS011;26970;49.900;10.774;2023-04-29T08:11:24;8.52;;;6.03;;
39502;SDS011;26970;49.900;10.774;2023-04-29T08:13:51;11.23;;;7.93;;
39502;SDS011;26970;49.900;10.774;2023-04-29T08:16:16;8.82;;;6.10;;
39502;SDS011;26970;49.900;10.774;2023-04-29T08:18:42;9.75;;;6.70;;
39502;SDS011;26970;49.900;10.774;2023-04-29T08:21:08;8.60;;;6.40;;
39502;SDS011;26970;49.900;10.774;2023-04-29T08:23:35;10.18;;;6.65;;
39502;SDS011;26970;49.900;10.774;2023-04-29T08:26:04;10.68;;;6.22;;
39502;SDS011;26970;49.900;10.774;2023-04-29T08:28:29;8.80;;;6.30;;
39502;SDS011;26970;49.900;10.774;2023-04-29T08:30:55;8.30;;;5.97;;
39502;SDS011;26970;49.900;10.774;2023-04-29T08:33:21;6.88;;;5.07;;
39502;SDS011;26970;49.900;10.774;2023-04-29T08:35:46;7.53;;;5.38;;
39502;SDS011;26970;49.900;10.774;2023-04-29T08:38:12;6.78;;;5.07;;
39502;SDS011;26970;49.900;10.774;2023-04-29T08:40:42;5.95;;;4.68;;
39502;SDS011;26970;49.900;10.774;2023-04-29T08:43:10;8.63;;;4.53;;
39502;SDS011;26970;49.900;10.774;2023-04-29T08:45:40;7.00;;;5.03;;
39502;SDS011;26970;49.900;10.774;2023-04-29T08:48:07;9.48;;;5.40;;
39502;SDS011;26970;49.900;10.774;2023-04-29T08:50:37;8.63;;;6.10;;
39502;SDS011;26970;49.900;10.774;2023-04-29T08:53:04;7.82;;;5.22;;
39502;SDS011;26970;49.900;10.774;2023-04-29T08:55:32;6.70;;;5.00;;
39502;SDS011;26970;49.900;10.774;2023-04-29T08:58:00;8.50;;;5.50;;
39502;SDS011;26970;49.900;10.774;2023-04-29T09:00:26;10.48;;;6.88;;
39502;SDS011;26970;49.900;10.774;2023-04-29T09:02:55;8.18;;;5.78;;
39502;SDS011;26970;49.900;10.774;2023-04-29T09:05:21;7.20;;;5.55;;
39502;SDS011;26970;49.900;10.774;2023-04-29T09:07:49;8.55;;;6.13;;
39502;SDS011;26970;49.900;10.774;2023-04-29T09:10:16;7.85;;;5.43;;
39502;SDS011;26970;49.900;10.774;2023-04-29T09:12:43;7.55;;;5.70;;
39502;SDS011;26970;49.900;10.774;2023-04-29T09:15:10;10.60;;;5.60;;
39502;SDS011;26970;49.900;10.774;2023-04-29T09:17:39;8.20;;;5.70;;
39502;SDS011;26970;49.900;10.774;2023-04-29T09:22:48;9.38;;;6.05;;
39502;SDS011;26970;49.900;10.774;2023-04-29T09:25:13;7.30;;;5.72;;
39502;SDS011;26970;49.900;10.774;2023-04-29T09:27:39;6.85;;;4.60;;
39502;SDS011;26970;49.900;10.774;2023-04-29T09:30:07;6.50;;;4.68;;
39502;SDS011;26970;49.900;10.774;2023-04-29T09:32:33;7.43;;;5.03;;
39502;SDS011;26970;49.900;10.774;2023-04-29T09:35:18;7.43;;;5.25;;
39502;SDS011;26970;49.900;10.774;2023-04-29T09:37:52;9.07;;;5.03;;
39502;SDS011;26970;49.900;10.774;2023-04-29T09:40:31;6.22;;;4.38;;
39502;SDS011;26970;49.900;10.774;2023-04-29T09:42:57;7.32;;;4.93;;
39502;SDS011;26970;49.900;10.774;2023-04-29T09:45:33;7.53;;;5.07;;
39502;SDS011;26970;49.900;10.774;2023-04-29T09:48:12;6.53;;;4.70;;
39502;SDS011;26970;49.900;10.774;2023-04-29T09:50:40;5.70;;;4.22;;
39502;SDS011;26970;49.900;10.774;2023-04-29T09:53:08;6.85;;;4.07;;
39502;SDS011;26970;49.900;10.774;2023-04-29T09:55:36;5.72;;;4.25;;
39502;SDS011;26970;49.900;10.774;2023-04-29T09:58:39;6.22;;;4.32;;
39502;SDS011;26970;49.900;10.774;2023-04-29T10:01:05;5.65;;;3.50;;
39502;SDS011;26970;49.900;10.774;2023-04-29T10:03:33;4.88;;;2.65;;
39502;SDS011;26970;49.900;10.774;2023-04-29T10:06:00;4.90;;;3.05;;
39502;SDS011;26970;49.900;10.774;2023-04-29T10:08:27;5.40;;;3.42;;
39502;SDS011;26970;49.900;10.774;2023-04-29T10:10:54;5.78;;;4.22;;
39502;SDS011;26970;49.900;10.774;2023-04-29T10:13:24;5.60;;;3.92;;
39502;SDS011;26970;49.900;10.774;2023-04-29T10:15:53;9.20;;;4.50;;
39502;SDS011;26970;49.900;10.774;2023-04-29T10:18:29;6.68;;;3.95;;
39502;SDS011;26970;49.900;10.774;2023-04-29T10:21:00;8.10;;;5.78;;
39502;SDS011;26970;49.900;10.774;2023-04-29T10:23:27;8.45;;;5.70;;
39502;SDS011;26970;49.900;10.774;2023-04-29T10:25:55;9.10;;;5.95;;
39502;SDS011;26970;49.900;10.774;2023-04-29T10:28:23;8.02;;;5.90;;
39502;SDS011;26970;49.900;10.774;2023-04-29T10:30:50;7.93;;;4.50;;
39502;SDS011;26970;49.900;10.774;2023-04-29T10:33:16;7.07;;;4.85;;
39502;SDS011;26970;49.900;10.774;2023-04-29T10:35:43;8.38;;;5.00;;
39502;SDS011;26970;49.900;10.774;2023-04-29T10:38:12;7.72;;;5.28;;
39502;SDS011;26970;49.900;10.774;2023-04-29T10:40:46;8.35;;;4.75;;
39502;SDS011;26970;49.900;10.774;2023-04-29T10:43:13;7.32;;;5.00;;
39502;SDS011;26970;49.900;10.774;2023-04-29T10:45:39;7.43;;;4.53;;
39502;SDS011;26970;49.900;10.774;2023-04-29T10:48:11;7.35;;;5.00;;
39502;SDS011;26970;49.900;10.774;2023-04-29T10:53:13;7.28;;;5.00;;
39502;SDS011;26970;49.900;10.774;2023-04-29T10:55:39;9.52;;;5.55;;
39502;SDS011;26970;49.900;10.774;2023-04-29T10:58:05;9.23;;;4.90;;
39502;SDS011;26970;49.900;10.774;2023-04-29T11:00:59;8.55;;;4.80;;
39502;SDS011;26970;49.900;10.774;2023-04-29T11:06:09;7.95;;;5.07;;
39502;SDS011;26970;49.900;10.774;2023-04-29T11:08:38;7.28;;;4.78;;
39502;SDS011;26970;49.900;10.774;2023-04-29T11:11:04;6.80;;;4.65;;
39502;SDS011;26970;49.900;10.774;2023-04-29T11:13:31;7.57;;;4.75;;
39502;SDS011;26970;49.900;10.774;2023-04-29T11:16:04;7.38;;;5.10;;
39502;SDS011;26970;49.900;10.774;2023-04-29T11:18:31;7.40;;;5.20;;
39502;SDS011;26970;49.900;10.774;2023-04-29T11:21:10;8.23;;;5.30;;
39502;SDS011;26970;49.900;10.774;2023-04-29T11:23:36;10.98;;;5.22;;
39502;SDS011;26970;49.900;10.774;2023-04-29T11:26:03;8.23;;;5.22;;
39502;SDS011;26970;49.900;10.774;2023-04-29T11:28:29;7.15;;;5.07;;
39502;SDS011;26970;49.900;10.774;2023-04-29T11:30:56;8.20;;;5.70;;
39502;SDS011;26970;49.900;10.774;2023-04-29T11:33:22;7.63;;;4.88;;
39502;SDS011;26970;49.900;10.774;2023-04-29T11:35:49;7.80;;;5.13;;
39502;SDS011;26970;49.900;10.774;2023-04-29T11:38:15;9.43;;;5.20;;
39502;SDS011;26970;49.900;10.774;2023-04-29T11:40:41;8.02;;;5.03;;
39502;SDS011;26970;49.900;10.774;2023-04-29T11:43:16;8.38;;;5.05;;
39502;SDS011;26970;49.900;10.774;2023-04-29T11:45:44;8.18;;;4.97;;
39502;SDS011;26970;49.900;10.774;2023-04-29T11:48:17;7.85;;;5.40;;
39502;SDS011;26970;49.900;10.774;2023-04-29T11:50:44;9.52;;;5.65;;
39502;SDS011;26970;49.900;10.774;2023-04-29T11:53:13;9.43;;;6.03;;
39502;SDS011;26970;49.900;10.774;2023-04-29T11:55:43;8.63;;;5.50;;
39502;SDS011;26970;49.900;10.774;2023-04-29T11:58:09;8.68;;;5.65;;
39502;SDS011;26970;49.900;10.774;2023-04-29T12:00:35;6.80;;;5.05;;
39502;SDS011;26970;49.900;10.774;2023-04-29T12:03:01;7.80;;;5.43;;
39502;SDS011;26970;49.900;10.774;2023-04-29T12:05:31;8.63;;;5.20;;
39502;SDS011;26970;49.900;10.774;2023-04-29T12:07:56;8.60;;;5.20;;
39502;SDS011;26970;49.900;10.774;2023-04-29T12:10:22;9.55;;;4.72;;
39502;SDS011;26970;49.900;10.774;2023-04-29T12:12:47;7.30;;;5.00;;
39502;SDS011;26970;49.900;10.774;2023-04-29T12:15:13;8.30;;;5.05;;
39502;SDS011;26970;49.900;10.774;2023-04-29T12:17:39;8.90;;;5.00;;
39502;SDS011;26970;49.900;10.774;2023-04-29T12:20:06;7.20;;;5.03;;
39502;SDS011;26970;49.900;10.774;2023-04-29T12:22:34;7.97;;;4.80;;
39502;SDS011;26970;49.900;10.774;2023-04-29T12:25:03;7.28;;;4.90;;
39502;SDS011;26970;49.900;10.774;2023-04-29T12:27:29;7.43;;;4.53;;
39502;SDS011;26970;49.900;10.774;2023-04-29T12:29:56;6.20;;;4.40;;
39502;SDS011;26970;49.900;10.774;2023-04-29T12:32:23;9.38;;;5.93;;
39502;SDS011;26970;49.900;10.774;2023-04-29T12:34:51;8.32;;;4.82;;
39502;SDS011;26970;49.900;10.774;2023-04-29T12:37:17;9.45;;;5.18;;
39502;SDS011;26970;49.900;10.774;2023-04-29T12:39:43;7.95;;;5.10;;
39502;SDS011;26970;49.900;10.774;2023-04-29T12:42:15;8.07;;;5.20;;
39502;SDS011;26970;49.900;10.774;2023-04-29T12:44:43;13.15;;;5.10;;
39502;SDS011;26970;49.900;10.774;2023-04-29T12:47:11;7.60;;;4.32;;
39502;SDS011;26970;49.900;10.774;2023-04-29T12:49:40;8.20;;;4.30;;
39502;SDS011;26970;49.900;10.774;2023-04-29T12:52:07;7.10;;;4.53;;
39502;SDS011;26970;49.900;10.774;2023-04-29T12:54:36;7.45;;;4.90;;
39502;SDS011;26970;49.900;10.774;2023-04-29T12:57:04;6.70;;;4.45;;
39502;SDS011;26970;49.900;10.774;2023-04-29T12:59:30;6.95;;;4.38;;
39502;SDS011;26970;49.900;10.774;2023-04-29T13:01:56;6.72;;;4.32;;
39502;SDS011;26970;49.900;10.774;2023-04-29T13:04:21;9.02;;;4.75;;
39502;SDS011;26970;49.900;10.774;2023-04-29T13:06:47;6.68;;;4.70;;
39502;SDS011;26970;49.900;10.774;2023-04-29T13:09:13;6.63;;;4.13;;
39502;SDS011;26970;49.900;10.774;2023-04-29T13:11:38;6.38;;;4.30;;
39502;SDS011;26970;49.900;10.774;2023-04-29T13:14:07;6.13;;;4.32;;
39502;SDS011;26970;49.900;10.774;2023-04-29T13:16:32;6.35;;;4.20;;
39502;SDS011;26970;49.900;10.774;2023-04-29T13:18:59;5.75;;;3.70;;
39502;SDS011;26970;49.900;10.774;2023-04-29T13:21:27;6.43;;;4.13;;
39502;SDS011;26970;49.900;10.774;2023-04-29T13:23:54;5.85;;;4.00;;
39502;SDS011;26970;49.900;10.774;2023-04-29T13:26:19;6.47;;;3.53;;
39502;SDS011;26970;49.900;10.774;2023-04-29T13:28:45;5.57;;;3.42;;
39502;SDS011;26970;49.900;10.774;2023-04-29T13:31:11;5.85;;;3.50;;
39502;SDS011;26970;49.900;10.774;2023-04-29T13:33:36;5.57;;;3.55;;
39502;SDS011;26970;49.900;10.774;2023-04-29T13:36:02;6.95;;;3.42;;
39502;SDS011;26970;49.900;10.774;2023-04-29T13:38:27;5.13;;;3.60;;
39502;SDS011;26970;49.900;10.774;2023-04-29T13:40:53;5.03;;;2.83;;
39502;SDS011;26970;49.900;10.774;2023-04-29T13:43:19;3.95;;;2.45;;
39502;SDS011;26970;49.900;10.774;2023-04-29T13:45:45;4.40;;;2.53;;
39502;SDS011;26970;49.900;10.774;2023-04-29T13:48:11;4.45;;;2.45;;
39502;SDS011;26970;49.900;10.774;2023-04-29T13:50:36;5.57;;;2.47;;
39502;SDS011;26970;49.900;10.774;2023-04-29T13:53:05;2.85;;;2.03;;
39502;SDS011;26970;49.900;10.774;2023-04-29T13:55:31;4.03;;;2.22;;
39502;SDS011;26970;49.900;10.774;2023-04-29T13:57:59;4.95;;;2.20;;
39502;SDS011;26970;49.900;10.774;2023-04-29T14:00:25;2.72;;;2.05;;
39502;SDS011;26970;49.900;10.774;2023-04-29T14:02:50;3.25;;;1.85;;
39502;SDS011;26970;49.900;10.774;2023-04-29T14:05:16;3.25;;;2.10;;
39502;SDS011;26970;49.900;10.774;2023-04-29T14:07:42;3.65;;;1.88;;
39502;SDS011;26970;49.900;10.774;2023-04-29T14:10:07;4.13;;;1.60;;
39502;SDS011;26970;49.900;10.774;2023-04-29T14:12:33;2.60;;;1.60;;
39502;SDS011;26970;49.900;10.774;2023-04-29T14:14:58;5.30;;;2.38;;
39502;SDS011;26970;49.900;10.774;2023-04-29T14:17:24;2.78;;;1.85;;
39502;SDS011;26970;49.900;10.774;2023-04-29T14:19:51;2.63;;;1.80;;
39502;SDS011;26970;49.900;10.774;2023-04-29T14:22:17;3.78;;;2.00;;
39502;SDS011;26970;49.900;10.774;2023-04-29T14:24:42;3.90;;;2.13;;
39502;SDS011;26970;49.900;10.774;2023-04-29T14:27:08;5.05;;;2.10;;
39502;SDS011;26970;49.900;10.774;2023-04-29T14:29:33;4.43;;;2.42;;
39502;SDS011;26970;49.900;10.774;2023-04-29T14:31:59;3.63;;;2.38;;
39502;SDS011;26970;49.900;10.774;2023-04-29T14:34:24;4.47;;;2.83;;
39502;SDS011;26970;49.900;10.774;2023-04-29T14:36:50;4.57;;;2.40;;
39502;SDS011;26970;49.900;10.774;2023-04-29T14:39:16;4.32;;;1.90;;
39502;SDS011;26970;49.900;10.774;2023-04-29T14:41:42;3.95;;;2.33;;
39502;SDS011;26970;49.900;10.774;2023-04-29T14:44:08;5.95;;;2.20;;